createdAt,value
2022-12-23T00:01:28.487Z,14.20
2022-12-23T00:03:59.618Z,14.20
2022-12-23T00:06:27.299Z,14.20
2022-12-23T00:08:58.421Z,14.30
2022-12-23T00:11:27.407Z,14.30
2022-12-23T00:14:20.418Z,14.20
2022-12-23T00:16:47.744Z,14.30
2022-12-23T00:19:14.553Z,14.30
2022-12-23T00:21:41.329Z,14.30
2022-12-23T00:24:08.144Z,14.50
2022-12-23T00:26:34.857Z,14.30
2022-12-23T00:29:01.650Z,14.50
2022-12-23T00:31:28.411Z,14.50
2022-12-23T00:33:55.268Z,14.50
2022-12-23T00:36:28.345Z,14.50
2022-12-23T00:39:14.973Z,14.50
2022-12-23T00:42:00.933Z,14.50
2022-12-23T00:44:27.715Z,14.60
2022-12-23T00:46:54.599Z,14.60
2022-12-23T00:49:40.019Z,14.60
2022-12-23T00:52:09.138Z,14.70
2022-12-23T00:54:36.471Z,14.70
2022-12-23T00:57:03.703Z,14.60
2022-12-23T00:59:31.417Z,14.60
2022-12-23T01:02:16.805Z,14.60
2022-12-23T01:05:04.188Z,14.70
2022-12-23T01:07:31.069Z,14.70
2022-12-23T01:09:57.803Z,14.80
2022-12-23T01:12:24.567Z,14.70
2022-12-23T01:14:51.303Z,14.80
2022-12-23T01:17:18.599Z,14.80
2022-12-23T01:19:45.399Z,14.90
2022-12-23T01:22:12.159Z,14.80
2022-12-23T01:24:39.030Z,15.00
2022-12-23T01:27:05.773Z,14.90
2022-12-23T01:29:32.695Z,14.90
2022-12-23T01:31:59.476Z,14.90
2022-12-23T01:34:31.089Z,14.80
2022-12-23T01:37:01.211Z,14.90
2022-12-23T01:39:28.032Z,14.90
2022-12-23T01:42:13.239Z,15.10
2022-12-23T01:45:04.355Z,15.00
2022-12-23T01:47:45.537Z,15.00
2022-12-23T01:50:23.735Z,15.00
2022-12-23T01:53:12.369Z,15.00
2022-12-23T01:55:48.617Z,15.00
2022-12-23T01:58:25.984Z,15.00
2022-12-23T02:01:13.868Z,14.90
2022-12-23T02:03:44.220Z,15.00
2022-12-23T02:06:34.895Z,15.00
2022-12-23T02:09:17.114Z,15.00
2022-12-23T02:12:00.860Z,15.00
2022-12-23T02:15:05.204Z,15.00
2022-12-23T02:17:56.361Z,15.10
2022-12-23T02:20:44.256Z,15.10
2022-12-23T02:23:25.825Z,15.10
2022-12-23T02:26:01.312Z,15.00
2022-12-23T02:28:56.379Z,15.00
2022-12-23T02:31:32.763Z,15.00
2022-12-23T02:34:23.303Z,15.10
2022-12-23T02:37:08.293Z,15.10
2022-12-23T02:39:53.891Z,15.20
2022-12-23T02:42:35.881Z,15.20
2022-12-23T02:45:18.630Z,15.10
2022-12-23T02:47:51.718Z,15.20
2022-12-23T02:50:28.186Z,15.30
2022-12-23T02:52:58.362Z,15.20
2022-12-23T02:55:30.548Z,15.20
2022-12-23T02:58:01.360Z,15.20
2022-12-23T03:00:28.767Z,15.20
2022-12-23T03:02:55.609Z,15.30
2022-12-23T03:05:33.362Z,15.20
2022-12-23T03:08:04.669Z,15.30
2022-12-23T03:10:50.215Z,15.30
2022-12-23T03:13:40.578Z,15.30
2022-12-23T03:16:37.344Z,15.30
2022-12-23T03:19:29.015Z,15.30
2022-12-23T03:22:51.051Z,15.30
2022-12-23T03:25:24.539Z,15.30
2022-12-23T03:28:25.325Z,15.20
2022-12-23T03:30:57.405Z,15.30
2022-12-23T03:33:34.987Z,15.30
2022-12-23T03:36:31.110Z,15.20
2022-12-23T03:38:58.351Z,15.20
2022-12-23T03:41:31.185Z,15.20
2022-12-23T03:44:08.368Z,15.20
2022-12-23T03:46:44.079Z,15.30
2022-12-23T03:49:16.549Z,15.20
2022-12-23T03:51:57.438Z,15.20
2022-12-23T03:54:31.381Z,15.30
2022-12-23T03:57:02.967Z,15.30
2022-12-23T03:59:34.197Z,15.40
2022-12-23T04:02:34.764Z,15.30
2022-12-23T04:05:28.769Z,15.30
2022-12-23T04:08:01.463Z,15.30
2022-12-23T04:10:28.800Z,15.20
2022-12-23T04:12:55.801Z,15.20
2022-12-23T04:15:24.899Z,15.20
2022-12-23T04:17:52.899Z,15.30
2022-12-23T04:20:19.810Z,15.30
2022-12-23T04:22:46.788Z,15.20
2022-12-23T04:25:15.080Z,15.20
2022-12-23T04:27:41.847Z,15.30
2022-12-23T04:30:10.610Z,15.30
2022-12-23T04:32:37.716Z,15.20
2022-12-23T04:35:04.884Z,15.20
2022-12-23T04:37:31.648Z,15.30
2022-12-23T04:39:58.404Z,15.20
2022-12-23T04:42:25.559Z,15.30
2022-12-23T04:44:52.475Z,15.30
2022-12-23T04:47:19.233Z,15.30
2022-12-23T04:49:46.024Z,15.30
2022-12-23T04:52:12.881Z,15.20
2022-12-23T04:54:45.769Z,15.30
2022-12-23T04:57:13.558Z,15.30
2022-12-23T04:59:40.298Z,15.30
2022-12-23T05:02:08.200Z,15.30
2022-12-23T05:04:35.322Z,15.30
2022-12-23T05:07:02.074Z,15.20
2022-12-23T05:09:28.878Z,15.30
2022-12-23T05:11:55.681Z,15.30
2022-12-23T05:14:22.483Z,15.30
2022-12-23T05:16:49.309Z,15.40
2022-12-23T05:19:16.198Z,15.40
2022-12-23T05:21:42.922Z,15.30
2022-12-23T05:24:09.793Z,15.30
2022-12-23T05:26:36.518Z,15.40
2022-12-23T05:29:03.407Z,15.30
2022-12-23T05:31:30.179Z,15.30
2022-12-23T05:34:02.281Z,15.30
2022-12-23T05:36:33.402Z,15.30
2022-12-23T05:39:00.366Z,15.20
2022-12-23T05:41:27.141Z,15.30
2022-12-23T05:43:54.064Z,15.20
2022-12-23T05:46:26.154Z,15.20
2022-12-23T05:48:53.747Z,15.20
2022-12-23T05:51:20.599Z,15.20
2022-12-23T05:53:47.386Z,15.30
2022-12-23T05:56:14.116Z,15.30
2022-12-23T05:58:41.001Z,15.30
2022-12-23T06:01:07.955Z,15.30
2022-12-23T06:03:35.031Z,15.40
2022-12-23T06:06:01.912Z,15.30
2022-12-23T06:08:28.619Z,15.20
2022-12-23T06:10:55.473Z,15.30
2022-12-23T06:13:22.281Z,15.30
2022-12-23T06:15:49.127Z,15.30
2022-12-23T06:18:15.871Z,15.30
2022-12-23T06:20:45.772Z,15.30
2022-12-23T06:23:12.522Z,15.30
2022-12-23T06:25:39.395Z,15.40
2022-12-23T06:28:07.865Z,15.30
2022-12-23T06:30:35.089Z,15.30
2022-12-23T06:33:01.882Z,15.30
2022-12-23T06:35:28.653Z,15.40
2022-12-23T06:37:55.424Z,15.40
2022-12-23T06:40:22.178Z,15.40
2022-12-23T06:42:48.932Z,15.40
2022-12-23T06:45:15.789Z,15.40
2022-12-23T06:47:42.652Z,15.40
2022-12-23T06:50:09.975Z,15.50
2022-12-23T06:52:36.708Z,15.60
2022-12-23T06:55:03.743Z,15.50
2022-12-23T06:57:30.470Z,15.40
2022-12-23T06:59:57.217Z,15.40
2022-12-23T07:02:24.005Z,15.40
2022-12-23T07:04:50.786Z,15.50
2022-12-23T07:07:17.641Z,15.60
2022-12-23T07:09:44.448Z,15.60
2022-12-23T07:12:11.232Z,15.50
2022-12-23T07:14:37.939Z,15.50
2022-12-23T07:17:04.881Z,15.60
2022-12-23T07:19:31.684Z,15.40
2022-12-23T07:21:58.620Z,15.40
2022-12-23T07:24:25.398Z,15.40
2022-12-23T07:26:52.326Z,15.40
2022-12-23T07:29:19.114Z,15.50
2022-12-23T07:31:46.052Z,15.40
2022-12-23T07:34:12.828Z,15.50
2022-12-23T07:36:39.604Z,15.50
2022-12-23T07:39:06.530Z,15.50
2022-12-23T07:41:33.638Z,15.60
2022-12-23T07:44:00.368Z,15.60
2022-12-23T07:46:27.406Z,15.70
2022-12-23T07:48:54.203Z,15.70
2022-12-23T07:51:21.073Z,15.70
2022-12-23T07:53:50.947Z,15.80
2022-12-23T07:56:18.963Z,15.80
2022-12-23T07:58:49.967Z,15.80
2022-12-23T08:01:17.730Z,15.60
2022-12-23T08:03:44.918Z,15.60
2022-12-23T08:06:13.951Z,15.60
2022-12-23T08:08:43.259Z,15.40
2022-12-23T08:11:11.824Z,15.50
2022-12-23T08:13:40.442Z,15.40
2022-12-23T08:16:08.476Z,15.30
2022-12-23T08:18:37.426Z,15.30
2022-12-23T08:21:06.909Z,15.30
2022-12-23T08:23:34.496Z,15.30
2022-12-23T08:26:13.059Z,15.30
2022-12-23T08:28:41.642Z,15.10
2022-12-23T08:31:10.764Z,15.30
2022-12-23T08:33:39.579Z,15.20
2022-12-23T08:36:08.215Z,15.20
2022-12-23T08:38:36.363Z,15.20
2022-12-23T08:41:08.043Z,15.20
2022-12-23T08:43:36.172Z,15.20
2022-12-23T08:46:03.890Z,15.20
2022-12-23T08:48:31.222Z,15.20
2022-12-23T08:51:02.181Z,15.20
2022-12-23T08:53:29.111Z,15.10
2022-12-23T08:55:55.878Z,15.20
2022-12-23T08:58:22.693Z,15.20
2022-12-23T09:00:49.409Z,15.20
2022-12-23T09:03:16.290Z,15.10
2022-12-23T09:05:43.245Z,15.30
2022-12-23T09:08:09.988Z,15.30
2022-12-23T09:10:43.423Z,15.30
2022-12-23T09:13:19.987Z,15.30
2022-12-23T09:15:52.080Z,15.30
2022-12-23T09:18:18.968Z,15.40
2022-12-23T09:20:45.683Z,15.30
2022-12-23T09:23:12.452Z,15.40
2022-12-23T09:25:39.210Z,15.40
2022-12-23T09:28:07.040Z,15.30
2022-12-23T09:30:33.811Z,15.50
2022-12-23T09:33:00.619Z,15.40
2022-12-23T09:35:27.337Z,15.50
2022-12-23T09:37:54.092Z,15.50
2022-12-23T09:40:21.938Z,15.50
2022-12-23T09:43:18.355Z,15.50
2022-12-23T09:46:09.952Z,15.40
2022-12-23T09:48:45.395Z,15.40
2022-12-23T09:51:13.738Z,15.30
2022-12-23T09:53:52.889Z,15.20
2022-12-23T09:56:23.417Z,15.30
2022-12-23T09:59:03.195Z,15.20
2022-12-23T10:01:57.358Z,15.20
2022-12-23T10:04:39.070Z,15.20
2022-12-23T10:07:05.841Z,15.20
2022-12-23T10:09:39.126Z,15.30
2022-12-23T10:12:27.265Z,15.20
2022-12-23T10:14:58.481Z,15.30
2022-12-23T10:17:35.203Z,15.30
2022-12-23T10:20:05.473Z,15.30
2022-12-23T10:22:44.529Z,15.40
2022-12-23T10:25:25.216Z,15.40
2022-12-23T10:27:52.114Z,15.40
2022-12-23T10:33:30.524Z,15.30
2022-12-23T10:36:32.570Z,15.30
2022-12-23T10:39:19.077Z,15.30
2022-12-23T10:42:39.533Z,15.40
2022-12-23T10:45:24.831Z,15.50
2022-12-23T10:47:51.536Z,15.40
2022-12-23T10:50:38.790Z,15.30
2022-12-23T10:53:11.721Z,15.30
2022-12-23T10:55:39.402Z,15.30
2022-12-23T10:58:12.820Z,15.10
2022-12-23T11:00:43.476Z,15.10
2022-12-23T11:03:37.742Z,15.20
2022-12-23T11:06:07.930Z,15.30
2022-12-23T11:08:37.332Z,15.30
2022-12-23T11:11:04.733Z,15.10
2022-12-23T11:13:36.049Z,15.10
2022-12-23T11:16:15.211Z,15.10
2022-12-23T11:19:01.458Z,15.10
2022-12-23T11:21:30.096Z,15.10
2022-12-23T11:24:19.031Z,15.20
2022-12-23T11:26:49.112Z,15.20
2022-12-23T11:29:27.869Z,15.20
2022-12-23T11:31:55.211Z,15.20
2022-12-23T11:34:24.966Z,15.20
2022-12-23T11:37:06.981Z,15.10
2022-12-23T11:39:37.042Z,15.30
2022-12-23T11:42:17.087Z,15.30
2022-12-23T11:44:49.866Z,15.50
2022-12-23T11:47:22.580Z,15.50
2022-12-23T11:49:53.397Z,15.50
2022-12-23T11:52:30.070Z,15.50
2022-12-23T11:55:00.232Z,15.60
2022-12-23T11:57:32.617Z,15.60
2022-12-23T12:00:02.843Z,15.60
2022-12-23T12:02:40.245Z,15.70
2022-12-23T12:05:22.679Z,15.60
2022-12-23T12:07:50.774Z,15.60
2022-12-23T12:10:24.870Z,15.70
2022-12-23T12:12:56.462Z,15.70
2022-12-23T12:16:01.457Z,15.80
2022-12-23T12:18:29.331Z,15.80
2022-12-23T12:21:01.536Z,15.80
2022-12-23T12:23:47.618Z,15.80
2022-12-23T12:26:28.374Z,15.90
2022-12-23T12:29:21.541Z,16.00
2022-12-23T12:31:51.562Z,15.90
2022-12-23T12:34:19.183Z,15.80
2022-12-23T12:37:10.125Z,15.80
2022-12-23T12:40:01.344Z,15.90
2022-12-23T12:42:44.152Z,15.90
2022-12-23T12:45:21.270Z,15.90
2022-12-23T12:48:18.539Z,15.80
2022-12-23T12:51:13.757Z,15.80
2022-12-23T12:54:05.880Z,15.80
2022-12-23T12:56:39.234Z,15.70
2022-12-23T12:59:06.137Z,15.70
2022-12-23T13:01:48.331Z,15.70
2022-12-23T13:04:26.926Z,15.70
2022-12-23T13:07:08.972Z,15.70
2022-12-23T13:10:11.965Z,15.70
2022-12-23T13:12:45.836Z,15.70
2022-12-23T13:15:32.294Z,15.70
2022-12-23T13:18:04.649Z,15.70
2022-12-23T13:20:48.439Z,15.70
2022-12-23T13:26:39.914Z,15.60
2022-12-23T13:29:21.531Z,15.60
2022-12-23T13:32:20.391Z,15.60
2022-12-23T13:35:03.570Z,15.60
2022-12-23T13:37:42.729Z,15.70
2022-12-23T13:40:12.479Z,15.70
2022-12-23T13:42:52.242Z,15.80
2022-12-23T13:45:20.323Z,15.80
2022-12-23T13:48:04.578Z,15.80
2022-12-23T13:50:50.300Z,15.80
2022-12-23T13:53:48.259Z,15.80
2022-12-23T13:56:45.300Z,15.90
2022-12-23T13:59:14.335Z,15.80
2022-12-23T14:01:41.129Z,15.80
2022-12-23T14:04:37.383Z,15.80
2022-12-23T14:07:19.783Z,15.70
2022-12-23T14:09:53.189Z,15.80
2022-12-23T14:12:29.439Z,15.90
2022-12-23T14:15:34.001Z,15.80
2022-12-23T14:18:04.900Z,15.80
2022-12-23T14:20:50.480Z,15.80
2022-12-23T14:23:39.088Z,15.80
2022-12-23T14:26:36.702Z,15.70
2022-12-23T14:29:25.354Z,15.70
2022-12-23T14:31:58.121Z,15.70
2022-12-23T14:34:29.031Z,15.70
2022-12-23T14:37:37.188Z,15.80
2022-12-23T14:40:37.341Z,15.70
2022-12-23T14:43:22.617Z,15.70
2022-12-23T14:46:06.980Z,15.80
2022-12-23T14:48:33.869Z,15.80
2022-12-23T14:51:09.741Z,15.70
2022-12-23T14:53:57.382Z,15.80
2022-12-23T14:56:39.533Z,15.80
2022-12-23T14:59:46.660Z,15.90
2022-12-23T15:02:21.952Z,15.80
2022-12-23T15:04:55.941Z,15.80
2022-12-23T15:07:26.612Z,15.80
2022-12-23T15:10:01.362Z,15.90
2022-12-23T15:12:43.566Z,15.90
2022-12-23T15:15:28.061Z,15.90
2022-12-23T15:18:06.981Z,15.90
2022-12-23T15:20:35.223Z,15.80
2022-12-23T15:23:08.094Z,15.80
2022-12-23T15:25:40.220Z,15.80
2022-12-23T15:28:18.080Z,15.80
2022-12-23T15:30:56.643Z,15.80
2022-12-23T15:34:04.872Z,15.80
2022-12-23T15:36:30.805Z,15.80
2022-12-23T15:38:59.692Z,15.80
2022-12-23T15:41:26.760Z,15.90
2022-12-23T15:43:57.891Z,15.80
2022-12-23T15:46:29.840Z,15.80
2022-12-23T15:48:57.861Z,15.80
2022-12-23T15:52:05.907Z,15.80
2022-12-23T15:54:30.181Z,15.70
2022-12-23T15:56:59.804Z,15.80
2022-12-23T15:59:32.902Z,15.70
2022-12-23T16:02:49.789Z,15.70
2022-12-23T16:05:05.645Z,15.70
2022-12-23T16:07:36.284Z,15.70
2022-12-23T16:10:12.136Z,15.70
2022-12-23T16:12:40.001Z,15.70
2022-12-23T16:15:29.925Z,15.70
2022-12-23T16:18:22.816Z,15.60
2022-12-23T16:20:53.728Z,15.60
2022-12-23T16:23:21.753Z,15.60
2022-12-23T16:25:54.470Z,15.50
2022-12-23T16:28:26.671Z,15.50
2022-12-23T16:30:56.370Z,15.60
2022-12-23T16:33:43.719Z,15.70
2022-12-23T16:36:25.318Z,15.80
2022-12-23T16:39:15.533Z,15.80
2022-12-23T16:41:42.266Z,15.80
2022-12-23T16:44:09.041Z,15.80
2022-12-23T16:46:48.344Z,15.70
2022-12-23T16:49:18.721Z,15.70
2022-12-23T16:51:46.495Z,15.70
2022-12-23T16:54:16.329Z,15.60
2022-12-23T16:56:44.299Z,15.50
2022-12-23T16:59:11.110Z,15.40
2022-12-23T17:01:41.099Z,15.40
2022-12-23T17:04:08.791Z,15.30
2022-12-23T17:06:36.968Z,15.30
2022-12-23T17:09:05.372Z,15.30
2022-12-23T17:11:39.932Z,15.30
2022-12-23T17:14:15.267Z,15.30
2022-12-23T17:16:43.087Z,15.30
2022-12-23T17:19:09.884Z,15.30
2022-12-23T17:21:37.649Z,15.30
2022-12-23T17:24:24.081Z,15.20
2022-12-23T17:26:51.567Z,15.30
2022-12-23T17:29:18.613Z,15.30
2022-12-23T17:31:47.329Z,15.30
2022-12-23T17:34:19.906Z,15.30
2022-12-23T17:36:50.317Z,15.40
2022-12-23T17:39:18.651Z,15.40
2022-12-23T17:41:45.766Z,15.30
2022-12-23T17:44:15.329Z,15.40
2022-12-23T17:46:42.311Z,15.50
2022-12-23T17:49:09.195Z,15.40
2022-12-23T17:51:37.514Z,15.50
2022-12-23T17:54:05.711Z,15.60
2022-12-23T17:56:32.897Z,15.60
2022-12-23T17:58:59.669Z,15.60
2022-12-23T18:01:27.800Z,15.50
2022-12-23T18:03:56.331Z,15.50
2022-12-23T18:06:24.971Z,15.60
2022-12-23T18:08:51.731Z,15.60
2022-12-23T18:11:39.468Z,15.70
2022-12-23T18:14:12.287Z,15.70
2022-12-23T18:16:39.146Z,15.70
2022-12-23T18:19:15.211Z,15.70
2022-12-23T18:21:42.176Z,15.70
2022-12-23T18:24:10.678Z,15.80
2022-12-23T18:26:37.645Z,15.80
2022-12-23T18:29:04.407Z,15.80
2022-12-23T18:31:31.271Z,15.70
2022-12-23T18:33:59.702Z,15.70
2022-12-23T18:36:30.476Z,15.70
2022-12-23T18:38:57.625Z,15.70
2022-12-23T18:41:26.205Z,15.80
2022-12-23T18:43:53.363Z,15.80
2022-12-23T18:46:22.506Z,15.80
2022-12-23T18:48:49.479Z,15.70
2022-12-23T18:51:18.855Z,15.80
2022-12-23T18:53:46.703Z,15.70
2022-12-23T18:56:14.490Z,15.60
2022-12-23T18:58:41.295Z,15.60
2022-12-23T19:01:18.439Z,15.70
2022-12-23T19:03:46.216Z,15.70
2022-12-23T19:06:14.986Z,15.70
2022-12-23T19:08:42.519Z,15.80
2022-12-23T19:11:18.425Z,15.70
2022-12-23T19:13:45.686Z,15.70
2022-12-23T19:16:17.755Z,15.70
2022-12-23T19:18:45.515Z,15.70
2022-12-23T19:21:12.488Z,15.70
2022-12-23T19:23:40.848Z,15.70
2022-12-23T19:26:10.284Z,15.80
2022-12-23T19:28:38.248Z,15.90
2022-12-23T19:31:10.372Z,15.80
2022-12-23T19:33:38.825Z,15.80
2022-12-23T19:36:13.682Z,15.90
2022-12-23T19:38:40.665Z,15.90
2022-12-23T19:41:08.659Z,15.90
2022-12-23T19:43:37.301Z,15.80
2022-12-23T19:46:07.385Z,15.80
2022-12-23T19:48:34.658Z,15.80
2022-12-23T19:51:10.132Z,15.90
2022-12-23T19:53:37.871Z,15.90
2022-12-23T19:56:15.582Z,15.80
2022-12-23T19:58:44.105Z,15.70
2022-12-23T20:01:20.188Z,15.80
2022-12-23T20:03:48.666Z,15.70
2022-12-23T20:06:18.870Z,15.70
2022-12-23T20:08:47.077Z,15.60
2022-12-23T20:11:17.255Z,15.60
2022-12-23T20:13:44.987Z,15.70
2022-12-23T20:16:13.440Z,15.70
2022-12-23T20:18:40.488Z,15.70
2022-12-23T20:21:07.505Z,15.80
2022-12-23T20:23:34.724Z,15.60
2022-12-23T20:26:04.017Z,15.80
2022-12-23T20:28:31.368Z,15.80
2022-12-23T20:31:09.279Z,15.80
2022-12-23T20:33:38.109Z,15.80
2022-12-23T20:36:09.263Z,15.80
2022-12-23T20:38:38.604Z,15.90
2022-12-23T20:41:06.993Z,15.70
2022-12-23T20:43:34.905Z,15.80
2022-12-23T20:46:03.349Z,15.70
2022-12-23T20:48:34.640Z,15.60
2022-12-23T20:51:11.636Z,15.70
2022-12-23T20:53:38.568Z,15.70
2022-12-23T20:56:15.566Z,15.70
2022-12-23T20:58:55.079Z,15.70
2022-12-23T21:01:22.733Z,15.60
2022-12-23T21:03:49.445Z,15.60
2022-12-23T21:06:16.200Z,15.50
2022-12-23T21:08:43.245Z,15.40
2022-12-23T21:11:10.500Z,15.30
2022-12-23T21:13:40.269Z,15.30
2022-12-23T21:16:09.877Z,15.20
2022-12-23T21:18:43.620Z,15.20
2022-12-23T21:21:11.517Z,15.20
2022-12-23T21:23:40.057Z,15.20
2022-12-23T21:26:11.582Z,15.20
2022-12-23T21:28:40.368Z,15.30
2022-12-23T21:31:07.582Z,15.20
2022-12-23T21:33:39.146Z,15.30
2022-12-23T21:36:08.052Z,15.30
2022-12-23T21:38:37.979Z,15.30
2022-12-23T21:41:07.367Z,15.30
2022-12-23T21:43:34.655Z,15.30
2022-12-23T21:46:03.940Z,15.30
2022-12-23T21:48:32.894Z,15.40
2022-12-23T21:51:14.076Z,15.40
2022-12-23T21:53:42.303Z,15.30
2022-12-23T21:56:11.736Z,15.30
2022-12-23T21:58:38.851Z,15.30
2022-12-23T22:01:11.391Z,15.30
2022-12-23T22:03:38.356Z,15.20
2022-12-23T22:06:11.063Z,15.30
2022-12-23T22:08:38.883Z,15.20
2022-12-23T22:11:11.291Z,15.30
2022-12-23T22:13:39.047Z,15.30
2022-12-23T22:16:09.857Z,15.30
2022-12-23T22:18:37.681Z,15.20
2022-12-23T22:21:09.542Z,15.30
2022-12-23T22:23:36.995Z,15.30
2022-12-23T22:26:05.146Z,15.40
2022-12-23T22:28:34.197Z,15.30
2022-12-23T22:31:05.996Z,15.30
2022-12-23T22:33:33.769Z,15.20
2022-12-23T22:36:00.678Z,15.20
2022-12-23T22:38:27.594Z,15.20
2022-12-23T22:40:54.563Z,15.20
2022-12-23T22:43:21.377Z,15.10
2022-12-23T22:45:59.014Z,15.10
2022-12-23T22:48:26.804Z,15.20
2022-12-23T22:51:04.137Z,15.20
2022-12-23T22:53:31.042Z,15.20
2022-12-23T22:56:01.846Z,15.20
2022-12-23T22:58:30.126Z,15.20
2022-12-23T23:00:57.631Z,15.10
2022-12-23T23:03:26.203Z,15.10
2022-12-23T23:06:07.206Z,15.00
2022-12-23T23:08:34.959Z,14.90
2022-12-23T23:11:03.722Z,14.90
2022-12-23T23:13:33.579Z,14.90
2022-12-23T23:16:01.477Z,14.90
2022-12-23T23:18:29.576Z,14.90
2022-12-23T23:20:56.337Z,14.90
2022-12-23T23:23:23.326Z,14.90
2022-12-23T23:25:50.706Z,14.80
2022-12-23T23:28:17.797Z,14.90
2022-12-23T23:30:44.799Z,14.80
2022-12-23T23:33:11.693Z,14.80
2022-12-23T23:35:38.530Z,14.80
2022-12-23T23:38:05.581Z,14.80
2022-12-23T23:40:32.513Z,14.90
2022-12-23T23:42:59.806Z,14.80
2022-12-23T23:45:27.524Z,14.90
2022-12-23T23:47:55.240Z,14.80
2022-12-23T23:50:22.252Z,14.90
2022-12-23T23:52:49.133Z,14.90
2022-12-23T23:55:16.196Z,14.80
2022-12-23T23:57:43.111Z,14.90
